Cooperstown, North Dakota
Current Conditions -  °F | °C
As of 10:15 PM on Sunday 21 Dec 2014 (Local Time) from KBAC Reporting Station
Haze Haze  
Wind Chill: -4°   Ceiling: 400
Heat Index:   Visibility: 3mi
Dew Point:   Wind: 8mph
Humidity: 100%   Direction: 130°SE
Pressure: 29.5"   Gusts: NA
Location:  47.44°N, 98.12°W
Report Text: KBAC 220415Z AUTO 13007KT 3SM BR OVC004 00/00 A2950 RMK AO2
Loading
Personal Weather Stations






























Interactive Weather Map New forecast layout! Learn more

10-Day Weather Forecast

Advertisements
Track Severe Weather on mobile